sensor_id;sensor_type;location;lat;lon;timestamp;P1;durP1;ratioP1;P2;durP2;ratioP2
15151;SDS011;7676;50.900;6.234;2024-02-26T00:05:19;2.83;;;1.40;;
15151;SDS011;7676;50.900;6.234;2024-02-26T00:20:21;1.50;;;1.00;;
15151;SDS011;7676;50.900;6.234;2024-02-26T00:35:24;1.90;;;1.33;;
15151;SDS011;7676;50.900;6.234;2024-02-26T00:50:26;1.40;;;1.00;;
15151;SDS011;7676;50.900;6.234;2024-02-26T01:05:29;2.10;;;1.13;;
15151;SDS011;7676;50.900;6.234;2024-02-26T01:20:32;2.90;;;1.20;;
15151;SDS011;7676;50.900;6.234;2024-02-26T01:35:34;1.50;;;1.30;;
15151;SDS011;7676;50.900;6.234;2024-02-26T01:50:37;1.63;;;1.00;;
15151;SDS011;7676;50.900;6.234;2024-02-26T02:05:40;1.50;;;1.00;;
15151;SDS011;7676;50.900;6.234;2024-02-26T02:20:44;2.23;;;1.30;;
15151;SDS011;7676;50.900;6.234;2024-02-26T02:35:47;1.77;;;1.10;;
15151;SDS011;7676;50.900;6.234;2024-02-26T02:50:54;3.17;;;1.30;;
15151;SDS011;7676;50.900;6.234;2024-02-26T03:05:56;1.40;;;1.00;;
15151;SDS011;7676;50.900;6.234;2024-02-26T03:20:59;1.20;;;1.00;;
15151;SDS011;7676;50.900;6.234;2024-02-26T03:36:01;2.07;;;1.00;;
15151;SDS011;7676;50.900;6.234;2024-02-26T03:51:04;2.90;;;1.00;;
15151;SDS011;7676;50.900;6.234;2024-02-26T04:06:10;2.50;;;1.00;;
15151;SDS011;7676;50.900;6.234;2024-02-26T04:21:16;1.37;;;1.03;;
15151;SDS011;7676;50.900;6.234;2024-02-26T04:36:18;2.20;;;1.00;;
15151;SDS011;7676;50.900;6.234;2024-02-26T04:51:21;1.70;;;1.20;;
15151;SDS011;7676;50.900;6.234;2024-02-26T05:06:24;1.53;;;1.20;;
15151;SDS011;7676;50.900;6.234;2024-02-26T05:21:27;1.00;;;0.83;;
15151;SDS011;7676;50.900;6.234;2024-02-26T05:36:29;1.33;;;0.90;;
15151;SDS011;7676;50.900;6.234;2024-02-26T05:51:35;1.70;;;1.10;;
15151;SDS011;7676;50.900;6.234;2024-02-26T06:06:39;1.40;;;1.17;;
15151;SDS011;7676;50.900;6.234;2024-02-26T06:21:45;2.60;;;1.50;;
15151;SDS011;7676;50.900;6.234;2024-02-26T06:36:47;1.80;;;1.40;;
15151;SDS011;7676;50.900;6.234;2024-02-26T06:51:51;2.67;;;2.10;;
15151;SDS011;7676;50.900;6.234;2024-02-26T07:06:54;3.57;;;2.50;;
15151;SDS011;7676;50.900;6.234;2024-02-26T07:21:56;3.80;;;2.90;;
15151;SDS011;7676;50.900;6.234;2024-02-26T07:36:59;2.57;;;2.30;;
15151;SDS011;7676;50.900;6.234;2024-02-26T07:52:01;2.83;;;2.50;;
15151;SDS011;7676;50.900;6.234;2024-02-26T08:07:04;3.30;;;2.57;;
15151;SDS011;7676;50.900;6.234;2024-02-26T08:22:07;3.07;;;2.70;;
15151;SDS011;7676;50.900;6.234;2024-02-26T08:37:11;3.60;;;2.60;;
15151;SDS011;7676;50.900;6.234;2024-02-26T08:52:13;3.53;;;2.70;;
15151;SDS011;7676;50.900;6.234;2024-02-26T09:07:17;2.30;;;2.07;;
15151;SDS011;7676;50.900;6.234;2024-02-26T09:22:19;2.90;;;1.90;;
15151;SDS011;7676;50.900;6.234;2024-02-26T09:37:23;2.47;;;1.80;;
15151;SDS011;7676;50.900;6.234;2024-02-26T09:52:25;1.87;;;1.50;;
15151;SDS011;7676;50.900;6.234;2024-02-26T10:07:30;1.93;;;1.30;;
15151;SDS011;7676;50.900;6.234;2024-02-26T10:22:33;1.40;;;1.20;;
15151;SDS011;7676;50.900;6.234;2024-02-26T10:37:35;2.10;;;1.57;;
15151;SDS011;7676;50.900;6.234;2024-02-26T10:52:38;2.87;;;1.60;;
15151;SDS011;7676;50.900;6.234;2024-02-26T11:07:41;2.37;;;1.70;;
15151;SDS011;7676;50.900;6.234;2024-02-26T11:22:44;3.00;;;2.40;;
15151;SDS011;7676;50.900;6.234;2024-02-26T11:37:53;2.40;;;2.10;;
15151;SDS011;7676;50.900;6.234;2024-02-26T12:08:29;4.10;;;3.20;;
15151;SDS011;7676;50.900;6.234;2024-02-26T12:23:31;3.97;;;3.30;;
15151;SDS011;7676;50.900;6.234;2024-02-26T12:38:34;5.53;;;3.00;;
15151;SDS011;7676;50.900;6.234;2024-02-26T12:53:38;4.53;;;2.97;;
15151;SDS011;7676;50.900;6.234;2024-02-26T13:08:41;3.60;;;3.23;;
15151;SDS011;7676;50.900;6.234;2024-02-26T13:23:48;3.80;;;3.10;;
15151;SDS011;7676;50.900;6.234;2024-02-26T13:38:54;4.57;;;4.17;;
15151;SDS011;7676;50.900;6.234;2024-02-26T13:53:57;5.90;;;4.97;;
15151;SDS011;7676;50.900;6.234;2024-02-26T14:09:00;8.27;;;5.67;;
15151;SDS011;7676;50.900;6.234;2024-02-26T14:24:03;10.53;;;8.27;;
15151;SDS011;7676;50.900;6.234;2024-02-26T14:39:06;11.23;;;9.03;;
15151;SDS011;7676;50.900;6.234;2024-02-26T14:54:09;9.67;;;8.63;;
15151;SDS011;7676;50.900;6.234;2024-02-26T15:09:13;9.50;;;8.53;;
15151;SDS011;7676;50.900;6.234;2024-02-26T15:24:15;10.73;;;9.40;;
15151;SDS011;7676;50.900;6.234;2024-02-26T15:39:19;9.87;;;8.67;;
15151;SDS011;7676;50.900;6.234;2024-02-26T15:54:23;10.17;;;8.63;;
15151;SDS011;7676;50.900;6.234;2024-02-26T16:09:28;16.10;;;12.23;;
15151;SDS011;7676;50.900;6.234;2024-02-26T16:24:31;10.70;;;9.60;;
15151;SDS011;7676;50.900;6.234;2024-02-26T16:39:38;11.13;;;7.90;;
15151;SDS011;7676;50.900;6.234;2024-02-26T16:54:41;7.60;;;6.50;;
15151;SDS011;7676;50.900;6.234;2024-02-26T17:09:44;6.77;;;5.57;;
15151;SDS011;7676;50.900;6.234;2024-02-26T17:24:46;9.37;;;5.67;;
15151;SDS011;7676;50.900;6.234;2024-02-26T17:39:49;9.23;;;7.00;;
15151;SDS011;7676;50.900;6.234;2024-02-26T17:54:51;8.80;;;7.47;;
15151;SDS011;7676;50.900;6.234;2024-02-26T18:09:54;10.40;;;8.67;;
15151;SDS011;7676;50.900;6.234;2024-02-26T18:24:56;12.63;;;10.33;;
15151;SDS011;7676;50.900;6.234;2024-02-26T18:39:59;12.93;;;11.30;;
15151;SDS011;7676;50.900;6.234;2024-02-26T18:55:01;14.00;;;9.93;;
15151;SDS011;7676;50.900;6.234;2024-02-26T19:10:06;13.07;;;9.63;;
15151;SDS011;7676;50.900;6.234;2024-02-26T19:25:09;11.77;;;9.47;;
15151;SDS011;7676;50.900;6.234;2024-02-26T19:40:13;11.50;;;8.83;;
15151;SDS011;7676;50.900;6.234;2024-02-26T19:55:16;12.50;;;10.57;;
15151;SDS011;7676;50.900;6.234;2024-02-26T20:10:19;13.10;;;11.37;;
15151;SDS011;7676;50.900;6.234;2024-02-26T20:25:22;12.50;;;11.20;;
15151;SDS011;7676;50.900;6.234;2024-02-26T20:40:24;16.70;;;13.03;;
15151;SDS011;7676;50.900;6.234;2024-02-26T20:55:27;19.07;;;16.47;;
15151;SDS011;7676;50.900;6.234;2024-02-26T21:10:29;18.80;;;15.10;;
15151;SDS011;7676;50.900;6.234;2024-02-26T21:25:32;19.33;;;15.00;;
15151;SDS011;7676;50.900;6.234;2024-02-26T21:40:35;19.23;;;14.70;;
15151;SDS011;7676;50.900;6.234;2024-02-26T21:55:37;22.47;;;17.37;;
15151;SDS011;7676;50.900;6.234;2024-02-26T22:10:40;23.57;;;17.23;;
15151;SDS011;7676;50.900;6.234;2024-02-26T22:25:43;23.03;;;17.43;;
15151;SDS011;7676;50.900;6.234;2024-02-26T22:40:46;24.97;;;19.37;;
15151;SDS011;7676;50.900;6.234;2024-02-26T22:55:48;26.13;;;19.83;;
15151;SDS011;7676;50.900;6.234;2024-02-26T23:10:53;23.83;;;18.50;;
15151;SDS011;7676;50.900;6.234;2024-02-26T23:25:56;28.77;;;22.43;;
15151;SDS011;7676;50.900;6.234;2024-02-26T23:40:58;33.77;;;23.93;;
15151;SDS011;7676;50.900;6.234;2024-02-26T23:56:01;31.53;;;24.37;;
